sensor_id;sensor_type;location;lat;lon;timestamp;temperature;humidity
22908;DHT22;11620;50.050;8.690;2024-03-02T00:02:43;4.70;99.90
22908;DHT22;11620;50.050;8.690;2024-03-02T00:05:30;4.70;99.90
22908;DHT22;11620;50.050;8.690;2024-03-02T00:08:23;4.60;99.90
22908;DHT22;11620;50.050;8.690;2024-03-02T00:11:10;4.60;99.90
22908;DHT22;11620;50.050;8.690;2024-03-02T00:14:00;4.70;99.90
22908;DHT22;11620;50.050;8.690;2024-03-02T00:16:46;4.60;99.90
22908;DHT22;11620;50.050;8.690;2024-03-02T00:19:32;4.60;99.90
22908;DHT22;11620;50.050;8.690;2024-03-02T00:22:19;4.50;99.90
22908;DHT22;11620;50.050;8.690;2024-03-02T00:25:05;4.50;99.90
22908;DHT22;11620;50.050;8.690;2024-03-02T00:27:54;4.50;99.90
22908;DHT22;11620;50.050;8.690;2024-03-02T00:36:25;4.40;99.90
22908;DHT22;11620;50.050;8.690;2024-03-02T00:39:15;4.40;99.90
22908;DHT22;11620;50.050;8.690;2024-03-02T00:42:03;4.30;99.90
22908;DHT22;11620;50.050;8.690;2024-03-02T00:44:49;4.30;99.90
22908;DHT22;11620;50.050;8.690;2024-03-02T00:47:39;4.20;99.90
22908;DHT22;11620;50.050;8.690;2024-03-02T00:50:25;4.20;99.90
22908;DHT22;11620;50.050;8.690;2024-03-02T00:53:12;4.20;99.90
22908;DHT22;11620;50.050;8.690;2024-03-02T00:55:59;4.20;99.90
22908;DHT22;11620;50.050;8.690;2024-03-02T00:58:46;4.10;99.90
22908;DHT22;11620;50.050;8.690;2024-03-02T01:01:33;4.00;99.90
22908;DHT22;11620;50.050;8.690;2024-03-02T01:04:19;4.10;99.90
22908;DHT22;11620;50.050;8.690;2024-03-02T01:07:05;4.10;99.90
22908;DHT22;11620;50.050;8.690;2024-03-02T01:09:52;4.20;99.90
22908;DHT22;11620;50.050;8.690;2024-03-02T01:12:38;4.20;99.90
22908;DHT22;11620;50.050;8.690;2024-03-02T01:15:25;4.20;99.90
22908;DHT22;11620;50.050;8.690;2024-03-02T01:18:11;4.30;99.90
22908;DHT22;11620;50.050;8.690;2024-03-02T01:20:58;4.30;99.90
22908;DHT22;11620;50.050;8.690;2024-03-02T01:23:44;4.30;99.90
22908;DHT22;11620;50.050;8.690;2024-03-02T01:26:30;4.30;99.90
22908;DHT22;11620;50.050;8.690;2024-03-02T01:29:17;4.20;99.90
22908;DHT22;11620;50.050;8.690;2024-03-02T01:32:04;4.20;99.90
22908;DHT22;11620;50.050;8.690;2024-03-02T01:34:50;4.10;99.90
22908;DHT22;11620;50.050;8.690;2024-03-02T01:37:36;4.10;99.90
22908;DHT22;11620;50.050;8.690;2024-03-02T01:40:23;4.10;99.90
22908;DHT22;11620;50.050;8.690;2024-03-02T01:43:12;4.10;99.90
22908;DHT22;11620;50.050;8.690;2024-03-02T01:45:58;4.10;99.90
22908;DHT22;11620;50.050;8.690;2024-03-02T01:48:45;4.10;99.90
22908;DHT22;11620;50.050;8.690;2024-03-02T01:51:32;4.00;99.90
22908;DHT22;11620;50.050;8.690;2024-03-02T01:54:18;4.00;99.90
22908;DHT22;11620;50.050;8.690;2024-03-02T01:57:04;4.00;99.90
22908;DHT22;11620;50.050;8.690;2024-03-02T01:59:52;4.00;99.90
22908;DHT22;11620;50.050;8.690;2024-03-02T02:02:39;4.00;99.90
22908;DHT22;11620;50.050;8.690;2024-03-02T02:05:25;4.00;99.90
22908;DHT22;11620;50.050;8.690;2024-03-02T02:08:12;3.90;99.90
22908;DHT22;11620;50.050;8.690;2024-03-02T02:10:58;3.90;99.90
22908;DHT22;11620;50.050;8.690;2024-03-02T02:13:44;3.80;99.90
22908;DHT22;11620;50.050;8.690;2024-03-02T02:16:31;3.80;99.90
22908;DHT22;11620;50.050;8.690;2024-03-02T02:19:17;3.90;99.90
22908;DHT22;11620;50.050;8.690;2024-03-02T02:22:04;3.80;99.90
22908;DHT22;11620;50.050;8.690;2024-03-02T02:24:50;3.80;99.90
22908;DHT22;11620;50.050;8.690;2024-03-02T02:27:36;3.80;99.90
22908;DHT22;11620;50.050;8.690;2024-03-02T02:30:26;3.70;99.90
22908;DHT22;11620;50.050;8.690;2024-03-02T02:33:12;3.70;99.90
22908;DHT22;11620;50.050;8.690;2024-03-02T02:35:59;3.70;99.90
22908;DHT22;11620;50.050;8.690;2024-03-02T02:38:47;3.80;99.90
22908;DHT22;11620;50.050;8.690;2024-03-02T02:41:34;3.60;99.90
22908;DHT22;11620;50.050;8.690;2024-03-02T02:44:20;3.60;99.90
22908;DHT22;11620;50.050;8.690;2024-03-02T02:47:07;3.60;99.90
22908;DHT22;11620;50.050;8.690;2024-03-02T02:49:53;3.60;99.90
22908;DHT22;11620;50.050;8.690;2024-03-02T02:52:41;3.60;99.90
22908;DHT22;11620;50.050;8.690;2024-03-02T02:55:27;3.50;99.90
22908;DHT22;11620;50.050;8.690;2024-03-02T02:58:13;3.50;99.90
22908;DHT22;11620;50.050;8.690;2024-03-02T03:01:00;3.50;99.90
22908;DHT22;11620;50.050;8.690;2024-03-02T03:03:47;3.50;99.90
22908;DHT22;11620;50.050;8.690;2024-03-02T03:06:33;3.50;99.90
22908;DHT22;11620;50.050;8.690;2024-03-02T03:09:20;3.50;99.90
22908;DHT22;11620;50.050;8.690;2024-03-02T03:12:07;3.50;99.90
22908;DHT22;11620;50.050;8.690;2024-03-02T03:14:53;3.50;99.90
22908;DHT22;11620;50.050;8.690;2024-03-02T03:17:40;3.40;99.90
22908;DHT22;11620;50.050;8.690;2024-03-02T03:20:26;3.40;99.90
22908;DHT22;11620;50.050;8.690;2024-03-02T03:23:12;3.40;99.90
22908;DHT22;11620;50.050;8.690;2024-03-02T03:26:03;3.30;99.90
22908;DHT22;11620;50.050;8.690;2024-03-02T03:28:50;3.40;99.90
22908;DHT22;11620;50.050;8.690;2024-03-02T03:31:36;3.30;99.90
22908;DHT22;11620;50.050;8.690;2024-03-02T03:34:23;3.30;99.90
22908;DHT22;11620;50.050;8.690;2024-03-02T03:37:09;3.20;99.90
22908;DHT22;11620;50.050;8.690;2024-03-02T03:39:56;3.40;99.90
22908;DHT22;11620;50.050;8.690;2024-03-02T03:42:42;3.30;99.90
22908;DHT22;11620;50.050;8.690;2024-03-02T03:45:28;3.30;99.90
22908;DHT22;11620;50.050;8.690;2024-03-02T03:48:16;3.20;99.90
22908;DHT22;11620;50.050;8.690;2024-03-02T03:51:03;3.30;99.90
22908;DHT22;11620;50.050;8.690;2024-03-02T03:53:49;3.10;99.90
22908;DHT22;11620;50.050;8.690;2024-03-02T03:56:36;3.10;99.90
22908;DHT22;11620;50.050;8.690;2024-03-02T03:59:22;3.10;99.90
22908;DHT22;11620;50.050;8.690;2024-03-02T04:02:08;3.20;99.90
22908;DHT22;11620;50.050;8.690;2024-03-02T04:04:55;3.10;99.90
22908;DHT22;11620;50.050;8.690;2024-03-02T04:07:42;3.10;99.90
22908;DHT22;11620;50.050;8.690;2024-03-02T04:10:29;3.10;99.90
22908;DHT22;11620;50.050;8.690;2024-03-02T04:13:16;3.10;99.90
22908;DHT22;11620;50.050;8.690;2024-03-02T04:16:02;3.10;99.90
22908;DHT22;11620;50.050;8.690;2024-03-02T04:18:51;3.10;99.90
22908;DHT22;11620;50.050;8.690;2024-03-02T04:21:37;3.10;99.90
22908;DHT22;11620;50.050;8.690;2024-03-02T04:24:25;3.10;99.90
22908;DHT22;11620;50.050;8.690;2024-03-02T04:27:11;3.10;99.90
22908;DHT22;11620;50.050;8.690;2024-03-02T04:29:58;3.10;99.90
22908;DHT22;11620;50.050;8.690;2024-03-02T04:32:44;3.00;99.90
22908;DHT22;11620;50.050;8.690;2024-03-02T04:35:32;3.00;99.90
22908;DHT22;11620;50.050;8.690;2024-03-02T04:38:19;3.00;99.90
22908;DHT22;11620;50.050;8.690;2024-03-02T04:41:06;3.00;99.90
22908;DHT22;11620;50.050;8.690;2024-03-02T04:43:52;3.00;99.90
22908;DHT22;11620;50.050;8.690;2024-03-02T04:46:38;3.00;99.90
22908;DHT22;11620;50.050;8.690;2024-03-02T04:49:25;3.00;99.90
22908;DHT22;11620;50.050;8.690;2024-03-02T04:52:11;2.90;99.90
22908;DHT22;11620;50.050;8.690;2024-03-02T04:54:58;2.90;99.90
22908;DHT22;11620;50.050;8.690;2024-03-02T04:58:03;2.90;99.90
22908;DHT22;11620;50.050;8.690;2024-03-02T05:00:49;2.90;99.90
22908;DHT22;11620;50.050;8.690;2024-03-02T05:03:36;2.90;99.90
22908;DHT22;11620;50.050;8.690;2024-03-02T05:06:22;2.90;99.90
22908;DHT22;11620;50.050;8.690;2024-03-02T05:09:09;3.00;99.90
22908;DHT22;11620;50.050;8.690;2024-03-02T05:11:56;2.90;99.90
22908;DHT22;11620;50.050;8.690;2024-03-02T05:15:03;2.90;99.90
22908;DHT22;11620;50.050;8.690;2024-03-02T05:17:49;2.90;99.90
22908;DHT22;11620;50.050;8.690;2024-03-02T05:20:36;3.10;99.90
22908;DHT22;11620;50.050;8.690;2024-03-02T05:23:22;2.90;99.90
22908;DHT22;11620;50.050;8.690;2024-03-02T05:26:10;3.00;99.90
22908;DHT22;11620;50.050;8.690;2024-03-02T05:28:59;2.90;99.90
22908;DHT22;11620;50.050;8.690;2024-03-02T05:31:46;2.80;99.90
22908;DHT22;11620;50.050;8.690;2024-03-02T05:34:32;2.80;99.90
22908;DHT22;11620;50.050;8.690;2024-03-02T05:37:21;2.90;99.90
22908;DHT22;11620;50.050;8.690;2024-03-02T05:40:08;2.90;99.90
22908;DHT22;11620;50.050;8.690;2024-03-02T05:42:54;2.90;99.90
22908;DHT22;11620;50.050;8.690;2024-03-02T05:45:41;2.90;99.90
22908;DHT22;11620;50.050;8.690;2024-03-02T05:48:27;2.90;99.90
22908;DHT22;11620;50.050;8.690;2024-03-02T05:51:14;2.80;99.90
22908;DHT22;11620;50.050;8.690;2024-03-02T05:54:00;2.90;99.90
22908;DHT22;11620;50.050;8.690;2024-03-02T05:56:47;2.90;99.90
22908;DHT22;11620;50.050;8.690;2024-03-02T05:59:37;2.70;99.90
22908;DHT22;11620;50.050;8.690;2024-03-02T06:02:24;2.70;99.90
22908;DHT22;11620;50.050;8.690;2024-03-02T06:05:13;2.70;99.90
22908;DHT22;11620;50.050;8.690;2024-03-02T06:08:00;2.60;99.90
22908;DHT22;11620;50.050;8.690;2024-03-02T06:10:47;2.80;99.90
22908;DHT22;11620;50.050;8.690;2024-03-02T06:13:34;2.70;99.90
22908;DHT22;11620;50.050;8.690;2024-03-02T06:16:21;2.80;99.90
22908;DHT22;11620;50.050;8.690;2024-03-02T06:19:07;2.70;99.90
22908;DHT22;11620;50.050;8.690;2024-03-02T06:21:56;2.80;99.90
22908;DHT22;11620;50.050;8.690;2024-03-02T06:24:45;2.70;99.90
22908;DHT22;11620;50.050;8.690;2024-03-02T06:27:33;2.70;99.90
22908;DHT22;11620;50.050;8.690;2024-03-02T06:30:21;2.70;99.90
22908;DHT22;11620;50.050;8.690;2024-03-02T06:33:08;2.70;99.90
22908;DHT22;11620;50.050;8.690;2024-03-02T06:36:01;2.70;99.90
22908;DHT22;11620;50.050;8.690;2024-03-02T06:38:49;2.70;99.90
22908;DHT22;11620;50.050;8.690;2024-03-02T06:41:37;2.80;99.90
22908;DHT22;11620;50.050;8.690;2024-03-02T06:44:23;2.80;99.90
22908;DHT22;11620;50.050;8.690;2024-03-02T06:47:10;2.80;99.90
22908;DHT22;11620;50.050;8.690;2024-03-02T06:49:56;2.80;99.90
22908;DHT22;11620;50.050;8.690;2024-03-02T06:52:44;2.80;99.90
22908;DHT22;11620;50.050;8.690;2024-03-02T06:55:32;2.90;99.90
22908;DHT22;11620;50.050;8.690;2024-03-02T06:58:19;2.90;99.90
22908;DHT22;11620;50.050;8.690;2024-03-02T07:01:05;2.70;99.90
22908;DHT22;11620;50.050;8.690;2024-03-02T07:03:52;2.90;99.90
22908;DHT22;11620;50.050;8.690;2024-03-02T07:06:38;2.90;99.90
22908;DHT22;11620;50.050;8.690;2024-03-02T07:09:26;2.90;99.90
22908;DHT22;11620;50.050;8.690;2024-03-02T07:12:13;2.90;99.90
22908;DHT22;11620;50.050;8.690;2024-03-02T07:14:59;2.80;99.90
22908;DHT22;11620;50.050;8.690;2024-03-02T07:17:48;2.90;99.90
22908;DHT22;11620;50.050;8.690;2024-03-02T07:20:35;2.90;99.90
22908;DHT22;11620;50.050;8.690;2024-03-02T07:23:21;3.00;99.90
22908;DHT22;11620;50.050;8.690;2024-03-02T07:26:10;2.90;99.90
22908;DHT22;11620;50.050;8.690;2024-03-02T07:28:57;2.90;99.90
22908;DHT22;11620;50.050;8.690;2024-03-02T07:31:43;2.90;99.90
22908;DHT22;11620;50.050;8.690;2024-03-02T07:34:30;2.90;99.90
22908;DHT22;11620;50.050;8.690;2024-03-02T07:37:17;2.90;99.90
22908;DHT22;11620;50.050;8.690;2024-03-02T07:40:04;3.10;99.90
22908;DHT22;11620;50.050;8.690;2024-03-02T07:42:51;3.00;99.90
22908;DHT22;11620;50.050;8.690;2024-03-02T07:45:37;3.10;99.90
22908;DHT22;11620;50.050;8.690;2024-03-02T07:48:23;3.10;99.90
22908;DHT22;11620;50.050;8.690;2024-03-02T07:51:10;3.20;99.90
22908;DHT22;11620;50.050;8.690;2024-03-02T07:53:56;3.30;99.90
22908;DHT22;11620;50.050;8.690;2024-03-02T07:56:42;3.40;99.90
22908;DHT22;11620;50.050;8.690;2024-03-02T07:59:29;3.50;99.90
22908;DHT22;11620;50.050;8.690;2024-03-02T08:02:15;3.70;99.90
22908;DHT22;11620;50.050;8.690;2024-03-02T08:05:02;3.80;99.90
22908;DHT22;11620;50.050;8.690;2024-03-02T08:07:48;3.90;99.90
22908;DHT22;11620;50.050;8.690;2024-03-02T08:10:38;3.90;99.90
22908;DHT22;11620;50.050;8.690;2024-03-02T08:13:24;4.00;99.90
22908;DHT22;11620;50.050;8.690;2024-03-02T08:16:11;4.30;99.90
22908;DHT22;11620;50.050;8.690;2024-03-02T08:18:57;4.10;99.90
22908;DHT22;11620;50.050;8.690;2024-03-02T08:21:46;4.40;99.90
22908;DHT22;11620;50.050;8.690;2024-03-02T08:24:33;4.50;99.90
22908;DHT22;11620;50.050;8.690;2024-03-02T08:27:19;4.60;99.90
22908;DHT22;11620;50.050;8.690;2024-03-02T08:30:06;4.70;99.90
22908;DHT22;11620;50.050;8.690;2024-03-02T08:32:54;4.80;99.90
22908;DHT22;11620;50.050;8.690;2024-03-02T08:35:40;4.80;99.90
22908;DHT22;11620;50.050;8.690;2024-03-02T08:38:27;4.90;99.90
22908;DHT22;11620;50.050;8.690;2024-03-02T08:41:13;4.90;99.90
22908;DHT22;11620;50.050;8.690;2024-03-02T08:43:59;4.90;99.90
22908;DHT22;11620;50.050;8.690;2024-03-02T08:46:46;5.00;99.90
22908;DHT22;11620;50.050;8.690;2024-03-02T08:49:33;5.10;99.90
22908;DHT22;11620;50.050;8.690;2024-03-02T08:52:19;5.20;99.90
22908;DHT22;11620;50.050;8.690;2024-03-02T08:55:06;5.30;99.90
22908;DHT22;11620;50.050;8.690;2024-03-02T08:57:53;5.30;99.90
22908;DHT22;11620;50.050;8.690;2024-03-02T09:00:40;5.40;99.90
22908;DHT22;11620;50.050;8.690;2024-03-02T09:03:26;5.50;99.90
22908;DHT22;11620;50.050;8.690;2024-03-02T09:06:13;5.60;99.90
22908;DHT22;11620;50.050;8.690;2024-03-02T09:09:00;5.70;99.90
22908;DHT22;11620;50.050;8.690;2024-03-02T09:11:46;5.80;99.90
22908;DHT22;11620;50.050;8.690;2024-03-02T09:14:33;5.90;99.90
22908;DHT22;11620;50.050;8.690;2024-03-02T09:17:20;6.00;99.90
22908;DHT22;11620;50.050;8.690;2024-03-02T09:20:07;6.20;99.90
22908;DHT22;11620;50.050;8.690;2024-03-02T09:22:53;6.30;99.90
22908;DHT22;11620;50.050;8.690;2024-03-02T09:25:40;6.40;99.90
22908;DHT22;11620;50.050;8.690;2024-03-02T09:28:26;6.60;99.90
22908;DHT22;11620;50.050;8.690;2024-03-02T09:31:12;6.70;99.90
22908;DHT22;11620;50.050;8.690;2024-03-02T09:33:59;6.80;99.90
22908;DHT22;11620;50.050;8.690;2024-03-02T09:36:45;6.90;99.90
22908;DHT22;11620;50.050;8.690;2024-03-02T09:39:31;7.10;99.90
22908;DHT22;11620;50.050;8.690;2024-03-02T09:42:18;7.30;99.90
22908;DHT22;11620;50.050;8.690;2024-03-02T09:45:06;7.50;99.90
22908;DHT22;11620;50.050;8.690;2024-03-02T09:47:52;7.70;99.90
22908;DHT22;11620;50.050;8.690;2024-03-02T09:50:39;7.90;99.90
22908;DHT22;11620;50.050;8.690;2024-03-02T09:53:29;8.00;99.90
22908;DHT22;11620;50.050;8.690;2024-03-02T09:56:17;8.00;99.90
22908;DHT22;11620;50.050;8.690;2024-03-02T09:59:04;8.10;99.90
22908;DHT22;11620;50.050;8.690;2024-03-02T10:02:00;8.20;99.90
22908;DHT22;11620;50.050;8.690;2024-03-02T10:04:49;8.40;99.90
22908;DHT22;11620;50.050;8.690;2024-03-02T10:07:35;8.60;99.90
22908;DHT22;11620;50.050;8.690;2024-03-02T10:10:22;8.60;99.90
22908;DHT22;11620;50.050;8.690;2024-03-02T10:13:12;8.90;99.90
22908;DHT22;11620;50.050;8.690;2024-03-02T10:16:11;9.10;99.90
22908;DHT22;11620;50.050;8.690;2024-03-02T10:18:58;9.40;99.90
22908;DHT22;11620;50.050;8.690;2024-03-02T10:21:54;9.60;99.90
22908;DHT22;11620;50.050;8.690;2024-03-02T10:24:41;9.80;99.90
22908;DHT22;11620;50.050;8.690;2024-03-02T10:27:27;10.00;99.90
22908;DHT22;11620;50.050;8.690;2024-03-02T10:30:15;10.30;99.90
22908;DHT22;11620;50.050;8.690;2024-03-02T10:33:02;10.50;99.90
22908;DHT22;11620;50.050;8.690;2024-03-02T10:35:52;10.50;99.90
22908;DHT22;11620;50.050;8.690;2024-03-02T10:38:40;10.50;99.90
22908;DHT22;11620;50.050;8.690;2024-03-02T10:41:27;10.70;99.90
22908;DHT22;11620;50.050;8.690;2024-03-02T10:44:15;10.80;99.90
22908;DHT22;11620;50.050;8.690;2024-03-02T10:47:03;11.00;99.90
22908;DHT22;11620;50.050;8.690;2024-03-02T10:49:51;11.60;99.90
22908;DHT22;11620;50.050;8.690;2024-03-02T10:52:38;12.00;99.90
22908;DHT22;11620;50.050;8.690;2024-03-02T10:55:25;12.40;99.90
22908;DHT22;11620;50.050;8.690;2024-03-02T10:58:12;12.80;99.90
22908;DHT22;11620;50.050;8.690;2024-03-02T11:01:05;12.80;99.90
22908;DHT22;11620;50.050;8.690;2024-03-02T11:03:53;12.80;99.90
22908;DHT22;11620;50.050;8.690;2024-03-02T11:06:50;12.70;99.90
22908;DHT22;11620;50.050;8.690;2024-03-02T11:09:41;12.80;99.90
22908;DHT22;11620;50.050;8.690;2024-03-02T11:12:29;13.20;99.90
22908;DHT22;11620;50.050;8.690;2024-03-02T11:15:18;13.30;99.90
22908;DHT22;11620;50.050;8.690;2024-03-02T11:18:08;13.30;99.90
22908;DHT22;11620;50.050;8.690;2024-03-02T11:20:54;13.50;99.90
22908;DHT22;11620;50.050;8.690;2024-03-02T11:23:41;13.80;99.90
22908;DHT22;11620;50.050;8.690;2024-03-02T11:26:31;14.00;99.90
22908;DHT22;11620;50.050;8.690;2024-03-02T11:32:23;14.60;99.90
22908;DHT22;11620;50.050;8.690;2024-03-02T11:35:09;14.50;99.90
22908;DHT22;11620;50.050;8.690;2024-03-02T11:37:56;14.40;99.90
22908;DHT22;11620;50.050;8.690;2024-03-02T11:40:45;14.20;99.90
22908;DHT22;11620;50.050;8.690;2024-03-02T11:43:31;14.10;99.90
22908;DHT22;11620;50.050;8.690;2024-03-02T11:46:22;14.20;99.90
22908;DHT22;11620;50.050;8.690;2024-03-02T11:49:08;14.10;99.90
22908;DHT22;11620;50.050;8.690;2024-03-02T11:52:01;14.10;99.90
22908;DHT22;11620;50.050;8.690;2024-03-02T11:54:48;14.10;99.90
22908;DHT22;11620;50.050;8.690;2024-03-02T11:57:35;14.30;99.90
22908;DHT22;11620;50.050;8.690;2024-03-02T12:00:21;14.60;99.90
22908;DHT22;11620;50.050;8.690;2024-03-02T12:03:09;14.90;99.90
22908;DHT22;11620;50.050;8.690;2024-03-02T12:05:58;15.10;99.90
22908;DHT22;11620;50.050;8.690;2024-03-02T12:08:45;15.30;99.90
22908;DHT22;11620;50.050;8.690;2024-03-02T12:11:31;15.40;99.90
22908;DHT22;11620;50.050;8.690;2024-03-02T12:14:17;15.60;99.90
22908;DHT22;11620;50.050;8.690;2024-03-02T12:17:04;15.80;99.90
22908;DHT22;11620;50.050;8.690;2024-03-02T12:19:51;15.90;99.90
22908;DHT22;11620;50.050;8.690;2024-03-02T12:22:37;16.10;99.90
22908;DHT22;11620;50.050;8.690;2024-03-02T12:25:24;16.20;99.90
22908;DHT22;11620;50.050;8.690;2024-03-02T12:28:11;16.00;99.90
22908;DHT22;11620;50.050;8.690;2024-03-02T12:30:57;16.00;99.90
22908;DHT22;11620;50.050;8.690;2024-03-02T12:33:43;16.20;99.90
22908;DHT22;11620;50.050;8.690;2024-03-02T12:36:30;16.40;99.90
22908;DHT22;11620;50.050;8.690;2024-03-02T12:39:22;16.50;99.90
22908;DHT22;11620;50.050;8.690;2024-03-02T12:42:09;16.60;99.90
22908;DHT22;11620;50.050;8.690;2024-03-02T12:44:55;16.40;99.90
22908;DHT22;11620;50.050;8.690;2024-03-02T12:47:42;16.50;99.90
22908;DHT22;11620;50.050;8.690;2024-03-02T12:50:29;16.50;99.90
22908;DHT22;11620;50.050;8.690;2024-03-02T12:53:16;16.70;99.90
22908;DHT22;11620;50.050;8.690;2024-03-02T12:56:02;16.90;99.90
22908;DHT22;11620;50.050;8.690;2024-03-02T12:58:56;16.90;99.90
22908;DHT22;11620;50.050;8.690;2024-03-02T13:01:52;16.90;99.90
22908;DHT22;11620;50.050;8.690;2024-03-02T13:04:40;16.90;99.90
22908;DHT22;11620;50.050;8.690;2024-03-02T13:07:27;17.00;99.90
22908;DHT22;11620;50.050;8.690;2024-03-02T13:10:14;17.00;99.90
22908;DHT22;11620;50.050;8.690;2024-03-02T13:13:01;16.60;99.90
22908;DHT22;11620;50.050;8.690;2024-03-02T13:15:47;16.60;99.90
22908;DHT22;11620;50.050;8.690;2024-03-02T13:18:33;16.50;99.90
22908;DHT22;11620;50.050;8.690;2024-03-02T13:21:20;16.70;99.90
22908;DHT22;11620;50.050;8.690;2024-03-02T13:24:06;17.00;99.90
22908;DHT22;11620;50.050;8.690;2024-03-02T13:26:53;17.00;99.90
22908;DHT22;11620;50.050;8.690;2024-03-02T13:29:42;17.20;99.90
22908;DHT22;11620;50.050;8.690;2024-03-02T13:32:29;17.20;99.90
22908;DHT22;11620;50.050;8.690;2024-03-02T13:35:15;17.20;99.90
22908;DHT22;11620;50.050;8.690;2024-03-02T13:38:01;16.80;99.90
22908;DHT22;11620;50.050;8.690;2024-03-02T13:40:49;16.60;99.90
22908;DHT22;11620;50.050;8.690;2024-03-02T13:43:38;16.30;99.90
22908;DHT22;11620;50.050;8.690;2024-03-02T13:46:25;16.00;99.90
22908;DHT22;11620;50.050;8.690;2024-03-02T13:49:11;16.10;99.90
22908;DHT22;11620;50.050;8.690;2024-03-02T13:51:58;15.80;99.90
22908;DHT22;11620;50.050;8.690;2024-03-02T13:54:47;15.50;99.90
22908;DHT22;11620;50.050;8.690;2024-03-02T13:57:33;15.40;99.90
22908;DHT22;11620;50.050;8.690;2024-03-02T14:00:20;15.40;99.90
22908;DHT22;11620;50.050;8.690;2024-03-02T14:03:06;15.30;99.90
22908;DHT22;11620;50.050;8.690;2024-03-02T14:05:53;15.10;99.90
22908;DHT22;11620;50.050;8.690;2024-03-02T14:08:41;15.10;99.90
22908;DHT22;11620;50.050;8.690;2024-03-02T14:11:30;15.00;99.90
22908;DHT22;11620;50.050;8.690;2024-03-02T14:14:17;14.70;99.90
22908;DHT22;11620;50.050;8.690;2024-03-02T14:17:04;14.90;99.90
22908;DHT22;11620;50.050;8.690;2024-03-02T14:19:52;15.10;99.90
22908;DHT22;11620;50.050;8.690;2024-03-02T14:22:39;14.90;99.90
22908;DHT22;11620;50.050;8.690;2024-03-02T14:25:26;14.90;99.90
22908;DHT22;11620;50.050;8.690;2024-03-02T14:28:12;14.70;99.90
22908;DHT22;11620;50.050;8.690;2024-03-02T14:30:58;14.90;99.90
22908;DHT22;11620;50.050;8.690;2024-03-02T14:33:47;14.80;99.90
22908;DHT22;11620;50.050;8.690;2024-03-02T14:36:33;15.00;99.90
22908;DHT22;11620;50.050;8.690;2024-03-02T14:39:20;14.70;99.90
22908;DHT22;11620;50.050;8.690;2024-03-02T14:42:06;14.70;99.90
22908;DHT22;11620;50.050;8.690;2024-03-02T14:44:53;14.40;99.90
22908;DHT22;11620;50.050;8.690;2024-03-02T14:47:40;14.80;99.90
22908;DHT22;11620;50.050;8.690;2024-03-02T14:50:27;14.70;99.90
22908;DHT22;11620;50.050;8.690;2024-03-02T14:53:14;14.60;99.90
22908;DHT22;11620;50.050;8.690;2024-03-02T14:56:00;14.40;99.90
22908;DHT22;11620;50.050;8.690;2024-03-02T14:58:46;14.20;99.90
22908;DHT22;11620;50.050;8.690;2024-03-02T15:01:32;14.20;99.90
22908;DHT22;11620;50.050;8.690;2024-03-02T15:04:19;14.20;99.90
22908;DHT22;11620;50.050;8.690;2024-03-02T15:07:06;14.20;99.90
22908;DHT22;11620;50.050;8.690;2024-03-02T15:09:52;14.20;99.90
22908;DHT22;11620;50.050;8.690;2024-03-02T15:12:38;14.10;99.90
22908;DHT22;11620;50.050;8.690;2024-03-02T15:15:25;14.20;99.90
22908;DHT22;11620;50.050;8.690;2024-03-02T15:18:11;14.00;99.90
22908;DHT22;11620;50.050;8.690;2024-03-02T15:20:58;13.90;99.90
22908;DHT22;11620;50.050;8.690;2024-03-02T15:23:45;14.00;99.90
22908;DHT22;11620;50.050;8.690;2024-03-02T15:26:32;14.10;99.90
22908;DHT22;11620;50.050;8.690;2024-03-02T15:29:18;14.00;99.90
22908;DHT22;11620;50.050;8.690;2024-03-02T15:32:05;14.20;99.90
22908;DHT22;11620;50.050;8.690;2024-03-02T15:34:53;14.20;99.90
22908;DHT22;11620;50.050;8.690;2024-03-02T15:37:39;14.10;99.90
22908;DHT22;11620;50.050;8.690;2024-03-02T15:40:25;14.20;99.90
22908;DHT22;11620;50.050;8.690;2024-03-02T15:43:12;14.10;99.90
22908;DHT22;11620;50.050;8.690;2024-03-02T15:45:58;14.10;99.90
22908;DHT22;11620;50.050;8.690;2024-03-02T15:48:45;13.90;99.90
22908;DHT22;11620;50.050;8.690;2024-03-02T15:51:31;14.00;99.90
22908;DHT22;11620;50.050;8.690;2024-03-02T15:54:19;14.10;99.90
22908;DHT22;11620;50.050;8.690;2024-03-02T15:57:05;14.00;99.90
22908;DHT22;11620;50.050;8.690;2024-03-02T15:59:52;13.90;99.90
22908;DHT22;11620;50.050;8.690;2024-03-02T16:02:38;13.80;99.90
22908;DHT22;11620;50.050;8.690;2024-03-02T16:05:27;13.70;99.90
22908;DHT22;11620;50.050;8.690;2024-03-02T16:08:16;13.60;99.90
22908;DHT22;11620;50.050;8.690;2024-03-02T16:11:02;13.60;99.90
22908;DHT22;11620;50.050;8.690;2024-03-02T16:13:49;13.50;99.90
22908;DHT22;11620;50.050;8.690;2024-03-02T16:16:37;13.50;99.90
22908;DHT22;11620;50.050;8.690;2024-03-02T16:19:23;13.50;99.90
22908;DHT22;11620;50.050;8.690;2024-03-02T16:22:09;13.40;99.90
22908;DHT22;11620;50.050;8.690;2024-03-02T16:24:57;13.40;99.90
22908;DHT22;11620;50.050;8.690;2024-03-02T16:27:43;13.30;99.90
22908;DHT22;11620;50.050;8.690;2024-03-02T16:30:29;13.30;99.90
22908;DHT22;11620;50.050;8.690;2024-03-02T16:33:16;13.30;99.90
22908;DHT22;11620;50.050;8.690;2024-03-02T16:36:03;13.20;99.90
22908;DHT22;11620;50.050;8.690;2024-03-02T16:38:50;13.30;99.90
22908;DHT22;11620;50.050;8.690;2024-03-02T16:41:37;13.30;99.90
22908;DHT22;11620;50.050;8.690;2024-03-02T16:44:26;13.10;99.90
22908;DHT22;11620;50.050;8.690;2024-03-02T16:47:13;13.00;99.90
22908;DHT22;11620;50.050;8.690;2024-03-02T16:50:01;13.00;99.90
22908;DHT22;11620;50.050;8.690;2024-03-02T16:52:49;13.00;99.90
22908;DHT22;11620;50.050;8.690;2024-03-02T16:55:35;13.00;99.90
22908;DHT22;11620;50.050;8.690;2024-03-02T16:58:22;12.90;99.90
22908;DHT22;11620;50.050;8.690;2024-03-02T17:01:08;12.90;99.90
22908;DHT22;11620;50.050;8.690;2024-03-02T17:03:54;12.80;99.90
22908;DHT22;11620;50.050;8.690;2024-03-02T17:06:41;12.80;99.90
22908;DHT22;11620;50.050;8.690;2024-03-02T17:09:27;12.80;99.90
22908;DHT22;11620;50.050;8.690;2024-03-02T17:12:14;12.70;99.90
22908;DHT22;11620;50.050;8.690;2024-03-02T17:15:00;12.70;99.90
22908;DHT22;11620;50.050;8.690;2024-03-02T17:17:46;12.60;99.90
22908;DHT22;11620;50.050;8.690;2024-03-02T17:20:33;12.50;99.90
22908;DHT22;11620;50.050;8.690;2024-03-02T17:23:21;12.50;99.90
22908;DHT22;11620;50.050;8.690;2024-03-02T17:26:08;12.40;99.90
22908;DHT22;11620;50.050;8.690;2024-03-02T17:28:54;12.40;99.90
22908;DHT22;11620;50.050;8.690;2024-03-02T17:31:41;12.30;99.90
22908;DHT22;11620;50.050;8.690;2024-03-02T17:34:27;12.20;99.90
22908;DHT22;11620;50.050;8.690;2024-03-02T17:37:03;12.20;99.90
22908;DHT22;11620;50.050;8.690;2024-03-02T17:39:48;12.10;99.90
22908;DHT22;11620;50.050;8.690;2024-03-02T17:42:34;12.00;99.90
22908;DHT22;11620;50.050;8.690;2024-03-02T17:45:21;11.90;99.90
22908;DHT22;11620;50.050;8.690;2024-03-02T17:48:08;11.80;99.90
22908;DHT22;11620;50.050;8.690;2024-03-02T17:50:54;11.70;99.90
22908;DHT22;11620;50.050;8.690;2024-03-02T17:53:41;11.70;99.90
22908;DHT22;11620;50.050;8.690;2024-03-02T17:56:27;11.60;99.90